sensor_id;sensor_type;location;lat;lon;timestamp;P1;durP1;ratioP1;P2;durP2;ratioP2
21758;SDS011;11041;50.854;20.580;2024-03-02T00:00:37;38.10;;;25.90;;
21758;SDS011;11041;50.854;20.580;2024-03-02T00:03:26;38.85;;;25.30;;
21758;SDS011;11041;50.854;20.580;2024-03-02T00:05:56;39.22;;;25.70;;
21758;SDS011;11041;50.854;20.580;2024-03-02T00:08:25;44.65;;;26.98;;
21758;SDS011;11041;50.854;20.580;2024-03-02T00:10:59;47.35;;;28.60;;
21758;SDS011;11041;50.854;20.580;2024-03-02T00:13:32;41.20;;;26.98;;
21758;SDS011;11041;50.854;20.580;2024-03-02T00:16:01;42.95;;;27.42;;
21758;SDS011;11041;50.854;20.580;2024-03-02T00:18:30;38.67;;;25.60;;
21758;SDS011;11041;50.854;20.580;2024-03-02T00:21:00;42.15;;;26.38;;
21758;SDS011;11041;50.854;20.580;2024-03-02T00:23:31;39.88;;;25.77;;
21758;SDS011;11041;50.854;20.580;2024-03-02T00:26:03;38.72;;;24.20;;
21758;SDS011;11041;50.854;20.580;2024-03-02T00:28:34;42.45;;;24.42;;
21758;SDS011;11041;50.854;20.580;2024-03-02T00:31:07;36.47;;;23.85;;
21758;SDS011;11041;50.854;20.580;2024-03-02T00:33:42;40.97;;;25.00;;
21758;SDS011;11041;50.854;20.580;2024-03-02T00:36:15;37.97;;;24.42;;
21758;SDS011;11041;50.854;20.580;2024-03-02T00:38:50;39.70;;;25.60;;
21758;SDS011;11041;50.854;20.580;2024-03-02T00:44:03;42.38;;;27.38;;
21758;SDS011;11041;50.854;20.580;2024-03-02T00:46:37;41.65;;;28.13;;
21758;SDS011;11041;50.854;20.580;2024-03-02T00:49:11;42.45;;;29.00;;
21758;SDS011;11041;50.854;20.580;2024-03-02T00:51:49;44.50;;;28.30;;
21758;SDS011;11041;50.854;20.580;2024-03-02T00:54:21;44.35;;;28.33;;
21758;SDS011;11041;50.854;20.580;2024-03-02T00:56:54;46.28;;;27.70;;
21758;SDS011;11041;50.854;20.580;2024-03-02T00:59:22;45.55;;;27.42;;
21758;SDS011;11041;50.854;20.580;2024-03-02T01:01:48;42.15;;;27.42;;
21758;SDS011;11041;50.854;20.580;2024-03-02T01:04:15;39.35;;;26.05;;
21758;SDS011;11041;50.854;20.580;2024-03-02T01:06:43;45.00;;;27.02;;
21758;SDS011;11041;50.854;20.580;2024-03-02T01:09:09;42.70;;;26.80;;
21758;SDS011;11041;50.854;20.580;2024-03-02T01:11:40;42.28;;;27.33;;
21758;SDS011;11041;50.854;20.580;2024-03-02T01:14:06;42.20;;;26.20;;
21758;SDS011;11041;50.854;20.580;2024-03-02T01:16:33;39.90;;;26.00;;
21758;SDS011;11041;50.854;20.580;2024-03-02T01:18:59;44.38;;;25.92;;
21758;SDS011;11041;50.854;20.580;2024-03-02T01:21:29;44.22;;;26.55;;
21758;SDS011;11041;50.854;20.580;2024-03-02T01:23:56;43.55;;;26.65;;
21758;SDS011;11041;50.854;20.580;2024-03-02T01:26:27;46.05;;;27.67;;
21758;SDS011;11041;50.854;20.580;2024-03-02T01:28:53;42.63;;;26.45;;
21758;SDS011;11041;50.854;20.580;2024-03-02T01:31:20;43.70;;;26.75;;
21758;SDS011;11041;50.854;20.580;2024-03-02T01:33:50;43.40;;;26.75;;
21758;SDS011;11041;50.854;20.580;2024-03-02T01:36:16;45.20;;;27.90;;
21758;SDS011;11041;50.854;20.580;2024-03-02T01:38:45;43.10;;;26.55;;
21758;SDS011;11041;50.854;20.580;2024-03-02T01:41:12;47.80;;;28.05;;
21758;SDS011;11041;50.854;20.580;2024-03-02T01:43:39;47.75;;;27.40;;
21758;SDS011;11041;50.854;20.580;2024-03-02T01:46:05;46.53;;;27.33;;
21758;SDS011;11041;50.854;20.580;2024-03-02T01:48:32;46.13;;;25.73;;
21758;SDS011;11041;50.854;20.580;2024-03-02T01:51:00;40.63;;;25.50;;
21758;SDS011;11041;50.854;20.580;2024-03-02T01:53:26;45.47;;;26.90;;
21758;SDS011;11041;50.854;20.580;2024-03-02T01:55:54;47.35;;;28.42;;
21758;SDS011;11041;50.854;20.580;2024-03-02T01:58:22;67.60;;;35.38;;
21758;SDS011;11041;50.854;20.580;2024-03-02T02:00:49;54.45;;;30.05;;
21758;SDS011;11041;50.854;20.580;2024-03-02T02:03:16;50.17;;;28.23;;
21758;SDS011;11041;50.854;20.580;2024-03-02T02:05:43;51.72;;;29.40;;
21758;SDS011;11041;50.854;20.580;2024-03-02T02:08:13;48.90;;;28.52;;
21758;SDS011;11041;50.854;20.580;2024-03-02T02:10:42;46.88;;;28.42;;
21758;SDS011;11041;50.854;20.580;2024-03-02T02:13:08;46.55;;;28.65;;
21758;SDS011;11041;50.854;20.580;2024-03-02T02:15:36;49.63;;;30.00;;
21758;SDS011;11041;50.854;20.580;2024-03-02T02:18:03;53.50;;;31.95;;
21758;SDS011;11041;50.854;20.580;2024-03-02T02:20:31;52.85;;;31.67;;
21758;SDS011;11041;50.854;20.580;2024-03-02T02:23:01;53.03;;;32.10;;
21758;SDS011;11041;50.854;20.580;2024-03-02T02:25:35;50.45;;;29.33;;
21758;SDS011;11041;50.854;20.580;2024-03-02T02:28:01;46.88;;;29.95;;
21758;SDS011;11041;50.854;20.580;2024-03-02T02:30:29;58.38;;;31.23;;
21758;SDS011;11041;50.854;20.580;2024-03-02T02:32:57;46.45;;;28.63;;
21758;SDS011;11041;50.854;20.580;2024-03-02T02:35:24;50.58;;;30.35;;
21758;SDS011;11041;50.854;20.580;2024-03-02T02:37:50;53.17;;;30.83;;
21758;SDS011;11041;50.854;20.580;2024-03-02T02:40:23;52.15;;;29.17;;
21758;SDS011;11041;50.854;20.580;2024-03-02T02:42:50;51.45;;;30.27;;
21758;SDS011;11041;50.854;20.580;2024-03-02T02:45:21;45.38;;;29.42;;
21758;SDS011;11041;50.854;20.580;2024-03-02T02:47:50;58.83;;;30.73;;
21758;SDS011;11041;50.854;20.580;2024-03-02T02:50:17;52.08;;;29.98;;
21758;SDS011;11041;50.854;20.580;2024-03-02T02:52:43;49.30;;;28.98;;
21758;SDS011;11041;50.854;20.580;2024-03-02T02:55:10;53.22;;;30.75;;
21758;SDS011;11041;50.854;20.580;2024-03-02T02:57:42;50.70;;;29.95;;
21758;SDS011;11041;50.854;20.580;2024-03-02T03:00:10;52.00;;;32.25;;
21758;SDS011;11041;50.854;20.580;2024-03-02T03:02:44;51.97;;;30.63;;
21758;SDS011;11041;50.854;20.580;2024-03-02T03:05:15;53.30;;;31.30;;
21758;SDS011;11041;50.854;20.580;2024-03-02T03:07:41;50.03;;;31.27;;
21758;SDS011;11041;50.854;20.580;2024-03-02T03:10:12;55.50;;;33.15;;
21758;SDS011;11041;50.854;20.580;2024-03-02T03:12:38;68.57;;;37.55;;
21758;SDS011;11041;50.854;20.580;2024-03-02T03:15:07;66.00;;;36.65;;
21758;SDS011;11041;50.854;20.580;2024-03-02T03:17:36;55.20;;;32.03;;
21758;SDS011;11041;50.854;20.580;2024-03-02T03:20:03;55.05;;;31.63;;
21758;SDS011;11041;50.854;20.580;2024-03-02T03:22:31;50.83;;;30.80;;
21758;SDS011;11041;50.854;20.580;2024-03-02T03:24:58;52.38;;;31.08;;
21758;SDS011;11041;50.854;20.580;2024-03-02T03:27:27;50.20;;;31.05;;
21758;SDS011;11041;50.854;20.580;2024-03-02T03:29:53;48.75;;;28.38;;
21758;SDS011;11041;50.854;20.580;2024-03-02T03:32:20;48.60;;;29.52;;
21758;SDS011;11041;50.854;20.580;2024-03-02T03:34:47;49.38;;;29.55;;
21758;SDS011;11041;50.854;20.580;2024-03-02T03:37:18;49.22;;;28.75;;
21758;SDS011;11041;50.854;20.580;2024-03-02T03:39:45;54.03;;;30.67;;
21758;SDS011;11041;50.854;20.580;2024-03-02T03:42:12;52.40;;;31.17;;
21758;SDS011;11041;50.854;20.580;2024-03-02T03:44:38;47.60;;;28.05;;
21758;SDS011;11041;50.854;20.580;2024-03-02T03:47:07;50.47;;;27.38;;
21758;SDS011;11041;50.854;20.580;2024-03-02T03:49:33;49.50;;;28.65;;
21758;SDS011;11041;50.854;20.580;2024-03-02T03:51:59;49.63;;;29.98;;
21758;SDS011;11041;50.854;20.580;2024-03-02T03:54:26;48.97;;;28.17;;
21758;SDS011;11041;50.854;20.580;2024-03-02T03:56:52;48.97;;;30.13;;
21758;SDS011;11041;50.854;20.580;2024-03-02T03:59:19;56.20;;;29.33;;
21758;SDS011;11041;50.854;20.580;2024-03-02T04:01:45;53.70;;;31.20;;
21758;SDS011;11041;50.854;20.580;2024-03-02T04:04:12;58.70;;;33.13;;
21758;SDS011;11041;50.854;20.580;2024-03-02T04:06:38;55.97;;;32.83;;
21758;SDS011;11041;50.854;20.580;2024-03-02T04:09:05;53.25;;;30.48;;
21758;SDS011;11041;50.854;20.580;2024-03-02T04:11:31;52.45;;;30.63;;
21758;SDS011;11041;50.854;20.580;2024-03-02T04:13:58;56.75;;;31.23;;
21758;SDS011;11041;50.854;20.580;2024-03-02T04:16:24;52.17;;;31.58;;
21758;SDS011;11041;50.854;20.580;2024-03-02T04:18:51;55.13;;;30.85;;
21758;SDS011;11041;50.854;20.580;2024-03-02T04:21:17;55.42;;;31.70;;
21758;SDS011;11041;50.854;20.580;2024-03-02T04:23:44;53.47;;;31.45;;
21758;SDS011;11041;50.854;20.580;2024-03-02T04:26:10;48.88;;;28.23;;
21758;SDS011;11041;50.854;20.580;2024-03-02T04:28:39;49.08;;;29.98;;
21758;SDS011;11041;50.854;20.580;2024-03-02T04:31:05;51.63;;;29.65;;
21758;SDS011;11041;50.854;20.580;2024-03-02T04:33:33;49.95;;;29.45;;
21758;SDS011;11041;50.854;20.580;2024-03-02T04:35:59;56.42;;;29.00;;
21758;SDS011;11041;50.854;20.580;2024-03-02T04:38:28;50.15;;;29.55;;
21758;SDS011;11041;50.854;20.580;2024-03-02T04:40:55;47.45;;;27.15;;
21758;SDS011;11041;50.854;20.580;2024-03-02T04:43:21;53.08;;;29.25;;
21758;SDS011;11041;50.854;20.580;2024-03-02T04:45:49;51.15;;;28.08;;
21758;SDS011;11041;50.854;20.580;2024-03-02T04:48:18;52.42;;;30.33;;
21758;SDS011;11041;50.854;20.580;2024-03-02T04:50:45;55.55;;;31.25;;
21758;SDS011;11041;50.854;20.580;2024-03-02T04:53:12;49.95;;;29.00;;
21758;SDS011;11041;50.854;20.580;2024-03-02T04:55:39;57.00;;;30.48;;
21758;SDS011;11041;50.854;20.580;2024-03-02T04:58:06;60.40;;;32.03;;
21758;SDS011;11041;50.854;20.580;2024-03-02T05:00:33;54.45;;;30.35;;
21758;SDS011;11041;50.854;20.580;2024-03-02T05:03:00;53.20;;;30.42;;
21758;SDS011;11041;50.854;20.580;2024-03-02T05:05:28;55.35;;;29.60;;
21758;SDS011;11041;50.854;20.580;2024-03-02T05:07:55;53.45;;;30.45;;
21758;SDS011;11041;50.854;20.580;2024-03-02T05:10:21;66.50;;;34.40;;
21758;SDS011;11041;50.854;20.580;2024-03-02T05:12:49;61.85;;;33.92;;
21758;SDS011;11041;50.854;20.580;2024-03-02T05:15:25;60.15;;;32.05;;
21758;SDS011;11041;50.854;20.580;2024-03-02T05:17:51;59.65;;;32.20;;
21758;SDS011;11041;50.854;20.580;2024-03-02T05:20:18;60.25;;;30.92;;
21758;SDS011;11041;50.854;20.580;2024-03-02T05:22:46;66.78;;;32.53;;
21758;SDS011;11041;50.854;20.580;2024-03-02T05:25:15;54.33;;;31.20;;
21758;SDS011;11041;50.854;20.580;2024-03-02T05:27:41;62.85;;;32.65;;
21758;SDS011;11041;50.854;20.580;2024-03-02T05:30:10;58.58;;;32.92;;
21758;SDS011;11041;50.854;20.580;2024-03-02T05:32:39;57.38;;;32.45;;
21758;SDS011;11041;50.854;20.580;2024-03-02T05:35:07;55.75;;;32.38;;
21758;SDS011;11041;50.854;20.580;2024-03-02T05:37:34;57.38;;;31.63;;
21758;SDS011;11041;50.854;20.580;2024-03-02T05:40:07;58.80;;;32.05;;
21758;SDS011;11041;50.854;20.580;2024-03-02T05:42:38;56.55;;;31.70;;
21758;SDS011;11041;50.854;20.580;2024-03-02T05:45:08;55.92;;;31.30;;
21758;SDS011;11041;50.854;20.580;2024-03-02T05:47:40;57.78;;;31.95;;
21758;SDS011;11041;50.854;20.580;2024-03-02T05:50:07;59.13;;;33.17;;
21758;SDS011;11041;50.854;20.580;2024-03-02T05:52:34;54.83;;;33.20;;
21758;SDS011;11041;50.854;20.580;2024-03-02T05:55:02;60.55;;;33.85;;
21758;SDS011;11041;50.854;20.580;2024-03-02T05:57:28;60.80;;;34.13;;
21758;SDS011;11041;50.854;20.580;2024-03-02T06:00:11;53.53;;;31.05;;
21758;SDS011;11041;50.854;20.580;2024-03-02T06:02:41;58.20;;;31.48;;
21758;SDS011;11041;50.854;20.580;2024-03-02T06:05:07;57.05;;;34.47;;
21758;SDS011;11041;50.854;20.580;2024-03-02T06:07:34;57.38;;;33.75;;
21758;SDS011;11041;50.854;20.580;2024-03-02T06:10:01;55.33;;;32.30;;
21758;SDS011;11041;50.854;20.580;2024-03-02T06:12:30;62.80;;;33.90;;
21758;SDS011;11041;50.854;20.580;2024-03-02T06:14:58;50.90;;;29.88;;
21758;SDS011;11041;50.854;20.580;2024-03-02T06:17:24;54.85;;;31.02;;
21758;SDS011;11041;50.854;20.580;2024-03-02T06:19:51;58.70;;;30.60;;
21758;SDS011;11041;50.854;20.580;2024-03-02T06:22:17;52.65;;;29.25;;
21758;SDS011;11041;50.854;20.580;2024-03-02T06:24:45;49.58;;;29.70;;
21758;SDS011;11041;50.854;20.580;2024-03-02T06:27:11;52.80;;;29.45;;
21758;SDS011;11041;50.854;20.580;2024-03-02T06:29:37;51.83;;;29.67;;
21758;SDS011;11041;50.854;20.580;2024-03-02T06:32:04;51.88;;;31.05;;
21758;SDS011;11041;50.854;20.580;2024-03-02T06:34:31;58.50;;;33.28;;
21758;SDS011;11041;50.854;20.580;2024-03-02T06:36:57;59.88;;;36.65;;
21758;SDS011;11041;50.854;20.580;2024-03-02T06:39:24;65.03;;;36.05;;
21758;SDS011;11041;50.854;20.580;2024-03-02T06:41:51;73.38;;;43.10;;
21758;SDS011;11041;50.854;20.580;2024-03-02T06:44:18;74.47;;;44.10;;
21758;SDS011;11041;50.854;20.580;2024-03-02T06:46:44;76.85;;;43.53;;
21758;SDS011;11041;50.854;20.580;2024-03-02T06:49:11;81.45;;;48.40;;
21758;SDS011;11041;50.854;20.580;2024-03-02T06:51:37;77.57;;;44.72;;
21758;SDS011;11041;50.854;20.580;2024-03-02T06:54:03;59.53;;;32.50;;
21758;SDS011;11041;50.854;20.580;2024-03-02T06:56:30;54.25;;;31.10;;
21758;SDS011;11041;50.854;20.580;2024-03-02T06:58:58;54.25;;;30.05;;
21758;SDS011;11041;50.854;20.580;2024-03-02T07:01:27;51.75;;;28.88;;
21758;SDS011;11041;50.854;20.580;2024-03-02T07:03:54;54.38;;;30.83;;
21758;SDS011;11041;50.854;20.580;2024-03-02T07:06:23;57.25;;;30.85;;
21758;SDS011;11041;50.854;20.580;2024-03-02T07:08:50;57.63;;;31.88;;
21758;SDS011;11041;50.854;20.580;2024-03-02T07:11:16;62.58;;;34.13;;
21758;SDS011;11041;50.854;20.580;2024-03-02T07:13:43;58.85;;;33.75;;
21758;SDS011;11041;50.854;20.580;2024-03-02T07:16:12;56.90;;;32.28;;
21758;SDS011;11041;50.854;20.580;2024-03-02T07:18:54;56.85;;;31.85;;
21758;SDS011;11041;50.854;20.580;2024-03-02T07:21:22;60.78;;;31.33;;
21758;SDS011;11041;50.854;20.580;2024-03-02T07:23:49;60.85;;;33.83;;
21758;SDS011;11041;50.854;20.580;2024-03-02T07:26:16;53.03;;;32.38;;
21758;SDS011;11041;50.854;20.580;2024-03-02T07:28:46;56.28;;;31.48;;
21758;SDS011;11041;50.854;20.580;2024-03-02T07:31:14;61.72;;;33.60;;
21758;SDS011;11041;50.854;20.580;2024-03-02T07:33:41;63.65;;;34.08;;
21758;SDS011;11041;50.854;20.580;2024-03-02T07:36:10;57.08;;;32.47;;
21758;SDS011;11041;50.854;20.580;2024-03-02T07:38:37;55.35;;;31.92;;
21758;SDS011;11041;50.854;20.580;2024-03-02T07:41:04;55.13;;;32.08;;
21758;SDS011;11041;50.854;20.580;2024-03-02T07:43:34;50.70;;;32.42;;
21758;SDS011;11041;50.854;20.580;2024-03-02T07:46:00;54.65;;;32.35;;
21758;SDS011;11041;50.854;20.580;2024-03-02T07:48:28;53.95;;;30.65;;
21758;SDS011;11041;50.854;20.580;2024-03-02T07:50:58;53.13;;;31.48;;
21758;SDS011;11041;50.854;20.580;2024-03-02T07:53:28;58.80;;;34.13;;
21758;SDS011;11041;50.854;20.580;2024-03-02T07:55:54;56.65;;;32.60;;
21758;SDS011;11041;50.854;20.580;2024-03-02T07:58:27;51.70;;;29.90;;
21758;SDS011;11041;50.854;20.580;2024-03-02T08:00:53;55.67;;;32.40;;
21758;SDS011;11041;50.854;20.580;2024-03-02T08:03:20;55.63;;;29.83;;
21758;SDS011;11041;50.854;20.580;2024-03-02T08:05:46;52.90;;;31.60;;
21758;SDS011;11041;50.854;20.580;2024-03-02T08:08:13;51.13;;;30.35;;
21758;SDS011;11041;50.854;20.580;2024-03-02T08:10:40;55.33;;;30.85;;
21758;SDS011;11041;50.854;20.580;2024-03-02T08:13:07;57.65;;;32.35;;
21758;SDS011;11041;50.854;20.580;2024-03-02T08:15:35;55.88;;;30.95;;
21758;SDS011;11041;50.854;20.580;2024-03-02T08:18:03;56.13;;;32.30;;
21758;SDS011;11041;50.854;20.580;2024-03-02T08:20:32;51.97;;;31.00;;
21758;SDS011;11041;50.854;20.580;2024-03-02T08:23:01;53.25;;;30.40;;
21758;SDS011;11041;50.854;20.580;2024-03-02T08:25:31;55.95;;;31.60;;
21758;SDS011;11041;50.854;20.580;2024-03-02T08:28:00;53.78;;;30.55;;
21758;SDS011;11041;50.854;20.580;2024-03-02T08:30:26;53.83;;;31.42;;
21758;SDS011;11041;50.854;20.580;2024-03-02T08:32:53;54.60;;;31.13;;
21758;SDS011;11041;50.854;20.580;2024-03-02T08:35:19;50.33;;;32.00;;
21758;SDS011;11041;50.854;20.580;2024-03-02T08:37:48;54.03;;;30.95;;
21758;SDS011;11041;50.854;20.580;2024-03-02T08:40:14;52.05;;;31.55;;
21758;SDS011;11041;50.854;20.580;2024-03-02T08:42:41;54.00;;;31.02;;
21758;SDS011;11041;50.854;20.580;2024-03-02T08:45:12;62.38;;;33.50;;
21758;SDS011;11041;50.854;20.580;2024-03-02T08:47:41;57.03;;;32.45;;
21758;SDS011;11041;50.854;20.580;2024-03-02T08:50:07;56.22;;;32.95;;
21758;SDS011;11041;50.854;20.580;2024-03-02T08:52:35;62.72;;;35.60;;
21758;SDS011;11041;50.854;20.580;2024-03-02T08:55:05;57.53;;;33.70;;
21758;SDS011;11041;50.854;20.580;2024-03-02T08:57:34;56.88;;;34.25;;
21758;SDS011;11041;50.854;20.580;2024-03-02T09:00:01;57.40;;;32.60;;
21758;SDS011;11041;50.854;20.580;2024-03-02T09:02:31;54.03;;;32.53;;
21758;SDS011;11041;50.854;20.580;2024-03-02T09:04:58;49.58;;;29.90;;
21758;SDS011;11041;50.854;20.580;2024-03-02T09:07:24;56.08;;;31.27;;
21758;SDS011;11041;50.854;20.580;2024-03-02T09:09:52;51.22;;;29.55;;
21758;SDS011;11041;50.854;20.580;2024-03-02T09:12:19;53.92;;;31.15;;
21758;SDS011;11041;50.854;20.580;2024-03-02T09:14:47;53.80;;;32.20;;
21758;SDS011;11041;50.854;20.580;2024-03-02T09:17:16;54.15;;;31.85;;
21758;SDS011;11041;50.854;20.580;2024-03-02T09:19:43;57.47;;;33.55;;
21758;SDS011;11041;50.854;20.580;2024-03-02T09:22:09;59.63;;;32.72;;
21758;SDS011;11041;50.854;20.580;2024-03-02T09:24:39;54.45;;;32.50;;
21758;SDS011;11041;50.854;20.580;2024-03-02T09:27:05;56.10;;;32.00;;
21758;SDS011;11041;50.854;20.580;2024-03-02T09:29:33;60.92;;;34.15;;
21758;SDS011;11041;50.854;20.580;2024-03-02T09:31:59;60.33;;;35.38;;
21758;SDS011;11041;50.854;20.580;2024-03-02T09:34:26;68.15;;;37.63;;
21758;SDS011;11041;50.854;20.580;2024-03-02T09:36:55;62.20;;;36.97;;
21758;SDS011;11041;50.854;20.580;2024-03-02T09:39:22;69.13;;;38.83;;
21758;SDS011;11041;50.854;20.580;2024-03-02T09:41:52;64.00;;;36.15;;
21758;SDS011;11041;50.854;20.580;2024-03-02T09:44:22;67.57;;;37.55;;
21758;SDS011;11041;50.854;20.580;2024-03-02T09:46:51;69.20;;;40.10;;
21758;SDS011;11041;50.854;20.580;2024-03-02T09:49:20;60.72;;;33.90;;
21758;SDS011;11041;50.854;20.580;2024-03-02T09:51:48;62.40;;;35.55;;
21758;SDS011;11041;50.854;20.580;2024-03-02T09:54:15;61.53;;;35.13;;
21758;SDS011;11041;50.854;20.580;2024-03-02T09:56:46;62.28;;;35.92;;
21758;SDS011;11041;50.854;20.580;2024-03-02T09:59:13;63.85;;;35.50;;
21758;SDS011;11041;50.854;20.580;2024-03-02T10:02:04;61.47;;;36.42;;
21758;SDS011;11041;50.854;20.580;2024-03-02T10:04:32;65.63;;;41.15;;
21758;SDS011;11041;50.854;20.580;2024-03-02T10:07:22;65.00;;;39.92;;
21758;SDS011;11041;50.854;20.580;2024-03-02T10:09:50;62.50;;;37.85;;
21758;SDS011;11041;50.854;20.580;2024-03-02T10:12:19;57.17;;;35.35;;
21758;SDS011;11041;50.854;20.580;2024-03-02T10:14:47;59.97;;;34.70;;
21758;SDS011;11041;50.854;20.580;2024-03-02T10:17:30;57.40;;;34.53;;
21758;SDS011;11041;50.854;20.580;2024-03-02T10:19:57;65.72;;;36.88;;
21758;SDS011;11041;50.854;20.580;2024-03-02T10:22:23;55.05;;;34.35;;
21758;SDS011;11041;50.854;20.580;2024-03-02T10:24:52;60.83;;;37.08;;
21758;SDS011;11041;50.854;20.580;2024-03-02T10:27:23;65.22;;;37.80;;
21758;SDS011;11041;50.854;20.580;2024-03-02T10:29:52;63.95;;;36.15;;
21758;SDS011;11041;50.854;20.580;2024-03-02T10:32:19;61.60;;;35.03;;
21758;SDS011;11041;50.854;20.580;2024-03-02T10:34:48;62.42;;;33.50;;
21758;SDS011;11041;50.854;20.580;2024-03-02T10:37:16;56.47;;;34.03;;
21758;SDS011;11041;50.854;20.580;2024-03-02T10:39:42;55.28;;;34.47;;
21758;SDS011;11041;50.854;20.580;2024-03-02T10:42:13;61.90;;;35.55;;
21758;SDS011;11041;50.854;20.580;2024-03-02T10:44:40;58.95;;;34.10;;
21758;SDS011;11041;50.854;20.580;2024-03-02T10:47:11;59.67;;;34.40;;
21758;SDS011;11041;50.854;20.580;2024-03-02T10:49:39;59.63;;;34.45;;
21758;SDS011;11041;50.854;20.580;2024-03-02T10:52:17;71.57;;;40.53;;
21758;SDS011;11041;50.854;20.580;2024-03-02T10:54:43;65.68;;;36.42;;
21758;SDS011;11041;50.854;20.580;2024-03-02T10:57:12;66.38;;;38.58;;
21758;SDS011;11041;50.854;20.580;2024-03-02T10:59:50;58.70;;;35.45;;
21758;SDS011;11041;50.854;20.580;2024-03-02T11:02:23;58.05;;;36.25;;
21758;SDS011;11041;50.854;20.580;2024-03-02T11:04:56;58.25;;;36.47;;
21758;SDS011;11041;50.854;20.580;2024-03-02T11:07:28;60.03;;;37.90;;
21758;SDS011;11041;50.854;20.580;2024-03-02T11:10:00;90.50;;;60.88;;
21758;SDS011;11041;50.854;20.580;2024-03-02T11:12:36;75.60;;;48.70;;
21758;SDS011;11041;50.854;20.580;2024-03-02T11:15:17;74.28;;;44.05;;
21758;SDS011;11041;50.854;20.580;2024-03-02T11:17:47;85.15;;;47.22;;
21758;SDS011;11041;50.854;20.580;2024-03-02T11:20:19;91.80;;;51.45;;
21758;SDS011;11041;50.854;20.580;2024-03-02T11:22:47;77.70;;;42.25;;
21758;SDS011;11041;50.854;20.580;2024-03-02T11:25:24;76.75;;;46.08;;
21758;SDS011;11041;50.854;20.580;2024-03-02T11:33:04;89.40;;;47.35;;
21758;SDS011;11041;50.854;20.580;2024-03-02T11:35:35;82.35;;;46.70;;
21758;SDS011;11041;50.854;20.580;2024-03-02T11:38:04;82.25;;;45.50;;
21758;SDS011;11041;50.854;20.580;2024-03-02T11:40:34;86.60;;;48.13;;
21758;SDS011;11041;50.854;20.580;2024-03-02T11:43:01;88.03;;;51.35;;
21758;SDS011;11041;50.854;20.580;2024-03-02T11:45:30;87.45;;;54.22;;
21758;SDS011;11041;50.854;20.580;2024-03-02T11:48:01;77.47;;;47.88;;
21758;SDS011;11041;50.854;20.580;2024-03-02T11:50:34;74.55;;;42.55;;
21758;SDS011;11041;50.854;20.580;2024-03-02T11:53:08;70.40;;;42.25;;
21758;SDS011;11041;50.854;20.580;2024-03-02T11:55:39;75.80;;;43.28;;
21758;SDS011;11041;50.854;20.580;2024-03-02T11:58:06;82.07;;;45.42;;
21758;SDS011;11041;50.854;20.580;2024-03-02T12:00:33;73.82;;;45.40;;
21758;SDS011;11041;50.854;20.580;2024-03-02T12:03:05;72.97;;;41.92;;
21758;SDS011;11041;50.854;20.580;2024-03-02T12:05:34;81.80;;;43.92;;
21758;SDS011;11041;50.854;20.580;2024-03-02T12:08:03;86.35;;;50.78;;
21758;SDS011;11041;50.854;20.580;2024-03-02T12:10:32;82.60;;;46.67;;
21758;SDS011;11041;50.854;20.580;2024-03-02T12:13:01;78.32;;;43.85;;
21758;SDS011;11041;50.854;20.580;2024-03-02T12:15:32;86.10;;;49.60;;
21758;SDS011;11041;50.854;20.580;2024-03-02T12:18:02;80.82;;;44.10;;
21758;SDS011;11041;50.854;20.580;2024-03-02T12:20:30;79.25;;;41.10;;
21758;SDS011;11041;50.854;20.580;2024-03-02T12:22:59;93.80;;;46.80;;
21758;SDS011;11041;50.854;20.580;2024-03-02T12:25:28;75.55;;;43.42;;
21758;SDS011;11041;50.854;20.580;2024-03-02T12:27:57;70.53;;;38.88;;
21758;SDS011;11041;50.854;20.580;2024-03-02T12:30:26;68.13;;;38.65;;
21758;SDS011;11041;50.854;20.580;2024-03-02T12:33:02;72.50;;;38.90;;
21758;SDS011;11041;50.854;20.580;2024-03-02T12:35:29;73.20;;;42.70;;
21758;SDS011;11041;50.854;20.580;2024-03-02T12:37:57;65.43;;;37.25;;
21758;SDS011;11041;50.854;20.580;2024-03-02T12:40:23;70.47;;;40.25;;
21758;SDS011;11041;50.854;20.580;2024-03-02T12:42:53;65.07;;;38.75;;
21758;SDS011;11041;50.854;20.580;2024-03-02T12:45:20;67.45;;;38.65;;
21758;SDS011;11041;50.854;20.580;2024-03-02T12:47:49;68.93;;;41.35;;
21758;SDS011;11041;50.854;20.580;2024-03-02T12:50:19;62.67;;;34.95;;
21758;SDS011;11041;50.854;20.580;2024-03-02T12:52:53;63.05;;;36.95;;
21758;SDS011;11041;50.854;20.580;2024-03-02T12:55:21;65.57;;;38.03;;
21758;SDS011;11041;50.854;20.580;2024-03-02T12:57:52;62.03;;;36.65;;
21758;SDS011;11041;50.854;20.580;2024-03-02T13:00:19;69.07;;;36.35;;
21758;SDS011;11041;50.854;20.580;2024-03-02T13:02:51;73.72;;;40.92;;
21758;SDS011;11041;50.854;20.580;2024-03-02T13:05:18;93.55;;;52.78;;
21758;SDS011;11041;50.854;20.580;2024-03-02T13:07:47;67.03;;;34.83;;
21758;SDS011;11041;50.854;20.580;2024-03-02T13:10:14;71.90;;;41.78;;
21758;SDS011;11041;50.854;20.580;2024-03-02T13:12:41;69.30;;;35.40;;
21758;SDS011;11041;50.854;20.580;2024-03-02T13:15:08;67.65;;;38.33;;
21758;SDS011;11041;50.854;20.580;2024-03-02T13:17:36;71.38;;;39.70;;
21758;SDS011;11041;50.854;20.580;2024-03-02T13:20:04;63.90;;;36.20;;
21758;SDS011;11041;50.854;20.580;2024-03-02T13:22:36;71.55;;;40.17;;
21758;SDS011;11041;50.854;20.580;2024-03-02T13:25:02;68.25;;;39.40;;
21758;SDS011;11041;50.854;20.580;2024-03-02T13:27:30;65.65;;;38.08;;
21758;SDS011;11041;50.854;20.580;2024-03-02T13:29:58;70.80;;;39.60;;
21758;SDS011;11041;50.854;20.580;2024-03-02T13:32:24;66.38;;;37.28;;
21758;SDS011;11041;50.854;20.580;2024-03-02T13:34:51;68.90;;;39.65;;
21758;SDS011;11041;50.854;20.580;2024-03-02T13:37:18;69.55;;;40.95;;
21758;SDS011;11041;50.854;20.580;2024-03-02T13:39:46;60.65;;;36.65;;
21758;SDS011;11041;50.854;20.580;2024-03-02T13:42:12;76.47;;;46.33;;
21758;SDS011;11041;50.854;20.580;2024-03-02T13:44:40;71.55;;;41.97;;
21758;SDS011;11041;50.854;20.580;2024-03-02T13:47:15;69.63;;;42.03;;
21758;SDS011;11041;50.854;20.580;2024-03-02T13:49:41;71.75;;;43.28;;
21758;SDS011;11041;50.854;20.580;2024-03-02T13:52:14;71.25;;;42.22;;
21758;SDS011;11041;50.854;20.580;2024-03-02T13:54:42;76.18;;;43.20;;
21758;SDS011;11041;50.854;20.580;2024-03-02T13:57:11;80.00;;;43.58;;
21758;SDS011;11041;50.854;20.580;2024-03-02T13:59:38;78.15;;;47.20;;
21758;SDS011;11041;50.854;20.580;2024-03-02T14:02:06;67.38;;;40.90;;
21758;SDS011;11041;50.854;20.580;2024-03-02T14:04:34;72.38;;;39.88;;
21758;SDS011;11041;50.854;20.580;2024-03-02T14:07:02;71.10;;;40.90;;
21758;SDS011;11041;50.854;20.580;2024-03-02T14:09:29;70.78;;;40.13;;
21758;SDS011;11041;50.854;20.580;2024-03-02T14:11:55;69.22;;;40.45;;
21758;SDS011;11041;50.854;20.580;2024-03-02T14:14:22;64.90;;;36.17;;
21758;SDS011;11041;50.854;20.580;2024-03-02T14:16:49;61.80;;;35.53;;
21758;SDS011;11041;50.854;20.580;2024-03-02T14:19:15;53.17;;;34.28;;
21758;SDS011;11041;50.854;20.580;2024-03-02T14:21:42;55.53;;;33.63;;
21758;SDS011;11041;50.854;20.580;2024-03-02T14:24:08;57.08;;;33.60;;